createdAt,value
2018-03-06T00:00:53.519Z,60.10
2018-03-06T00:01:53.417Z,57.70
2018-03-06T00:02:53.313Z,61.90
2018-03-06T00:03:53.196Z,60.00
2018-03-06T00:04:53.095Z,60.30
2018-03-06T00:05:52.991Z,58.20
2018-03-06T00:06:52.887Z,55.50
2018-03-06T00:07:52.772Z,59.60
2018-03-06T00:08:52.669Z,55.90
2018-03-06T00:09:52.566Z,59.00
2018-03-06T00:10:52.451Z,56.80
2018-03-06T00:11:52.346Z,53.80
2018-03-06T00:12:52.242Z,58.90
2018-03-06T00:13:52.139Z,58.40
2018-03-06T00:14:52.024Z,57.60
2018-03-06T00:15:51.921Z,56.50
2018-03-06T00:16:51.821Z,57.50
2018-03-06T00:17:51.700Z,61.20
2018-03-06T00:18:51.596Z,57.40
2018-03-06T00:19:51.745Z,59.60
2018-03-06T00:20:51.379Z,55.50
2018-03-06T00:21:51.275Z,55.10
2018-03-06T00:22:51.172Z,59.70
2018-03-06T00:23:51.071Z,56.00
2018-03-06T00:24:50.951Z,58.00
2018-03-06T00:25:50.848Z,60.40
2018-03-06T00:26:50.746Z,56.70
2018-03-06T00:27:50.643Z,56.30
2018-03-06T00:28:50.528Z,56.10
2018-03-06T00:29:50.424Z,56.60
2018-03-06T00:30:50.320Z,54.60
2018-03-06T00:31:50.216Z,58.50
2018-03-06T00:32:50.102Z,60.50
2018-03-06T00:33:49.997Z,54.50
2018-03-06T00:34:49.883Z,59.40
2018-03-06T00:35:49.778Z,61.90
2018-03-06T00:36:49.675Z,51.60
2018-03-06T00:37:49.560Z,57.30
2018-03-06T00:38:49.456Z,56.30
2018-03-06T00:39:49.352Z,54.00
2018-03-06T00:40:49.249Z,57.90
2018-03-06T00:41:49.133Z,59.00
2018-03-06T00:42:49.030Z,63.20
2018-03-06T00:43:48.927Z,58.60
2018-03-06T00:44:48.814Z,58.20
2018-03-06T00:45:48.708Z,58.50
2018-03-06T00:46:48.604Z,57.90
2018-03-06T00:47:48.489Z,57.90
2018-03-06T00:48:48.386Z,60.00
2018-03-06T00:49:48.281Z,54.30
2018-03-06T00:50:48.168Z,56.50
2018-03-06T00:51:48.062Z,64.20
2018-03-06T00:52:47.959Z,63.70
2018-03-06T00:53:47.857Z,57.60
2018-03-06T00:54:47.740Z,62.00
2018-03-06T00:55:47.637Z,59.80
2018-03-06T00:56:47.536Z,62.60
2018-03-06T00:57:47.418Z,57.60
2018-03-06T00:58:47.315Z,64.00
2018-03-06T00:59:47.212Z,59.00
2018-03-06T01:00:47.107Z,60.20
2018-03-06T01:01:46.993Z,62.30
2018-03-06T01:02:46.893Z,57.10
2018-03-06T01:03:46.773Z,59.90
2018-03-06T01:04:46.919Z,63.90
2018-03-06T01:05:46.566Z,63.30
2018-03-06T01:06:46.462Z,58.80
2018-03-06T01:07:46.347Z,58.40
2018-03-06T01:08:46.243Z,62.20
2018-03-06T01:09:46.141Z,61.70
2018-03-06T01:10:46.026Z,64.20
2018-03-06T01:11:45.920Z,63.90
2018-03-06T01:12:45.819Z,62.60
2018-03-06T01:13:45.702Z,60.40
2018-03-06T01:14:45.600Z,59.30
2018-03-06T01:15:45.496Z,60.10
2018-03-06T01:16:45.379Z,60.20
2018-03-06T01:17:45.276Z,64.00
2018-03-06T01:18:45.173Z,61.70
2018-03-06T01:19:45.058Z,57.40
2018-03-06T01:20:44.954Z,63.40
2018-03-06T01:21:44.851Z,60.90
2018-03-06T01:22:44.736Z,65.40
2018-03-06T01:23:44.631Z,59.90
2018-03-06T01:24:44.778Z,67.00
2018-03-06T01:25:44.412Z,62.80
2018-03-06T01:26:44.309Z,62.80
2018-03-06T01:27:44.206Z,62.60
2018-03-06T01:28:44.089Z,63.50
2018-03-06T01:29:43.987Z,64.30
2018-03-06T01:30:43.896Z,66.30
2018-03-06T01:31:43.767Z,65.30
2018-03-06T01:32:43.665Z,64.50
2018-03-06T01:33:43.564Z,60.10
2018-03-06T01:34:43.445Z,62.80
2018-03-06T01:35:43.343Z,63.60
2018-03-06T01:36:43.239Z,68.80
2018-03-06T01:37:43.123Z,65.90
2018-03-06T01:38:43.022Z,64.60
2018-03-06T01:39:42.916Z,64.30
2018-03-06T01:40:42.800Z,62.40
2018-03-06T01:41:42.696Z,64.60
2018-03-06T01:42:42.593Z,62.70
2018-03-06T01:43:42.490Z,66.30
2018-03-06T01:44:42.375Z,68.00
2018-03-06T01:45:42.270Z,67.60
2018-03-06T01:46:42.156Z,66.50
2018-03-06T01:47:42.052Z,66.70
2018-03-06T01:48:41.949Z,66.70
2018-03-06T01:49:41.834Z,62.50
2018-03-06T01:50:41.729Z,63.20
2018-03-06T01:51:41.627Z,63.70
2018-03-06T01:52:41.511Z,65.70
2018-03-06T01:53:41.406Z,67.40
2018-03-06T01:54:41.303Z,65.40
2018-03-06T01:55:41.188Z,68.20
2018-03-06T01:56:41.085Z,66.90
2018-03-06T01:57:40.980Z,61.50
2018-03-06T01:58:40.866Z,65.20
2018-03-06T01:59:40.761Z,70.40
2018-03-06T02:00:40.659Z,70.80
2018-03-06T02:01:40.543Z,63.50
2018-03-06T02:02:40.440Z,66.40
2018-03-06T02:03:40.337Z,70.70
2018-03-06T02:04:40.220Z,67.00
2018-03-06T02:05:40.130Z,68.60
2018-03-06T02:06:40.013Z,70.60
2018-03-06T02:07:39.898Z,68.00
2018-03-06T02:08:39.795Z,64.90
2018-03-06T02:09:39.692Z,68.20
2018-03-06T02:10:39.588Z,69.10
2018-03-06T02:11:39.471Z,70.00
2018-03-06T02:12:39.357Z,68.40
2018-03-06T02:13:39.253Z,67.50
2018-03-06T02:14:39.222Z,70.50
2018-03-06T02:15:39.036Z,72.80
2018-03-06T02:16:38.931Z,69.40
2018-03-06T02:17:38.827Z,64.10
2018-03-06T02:18:38.714Z,70.40
2018-03-06T02:19:38.614Z,71.70
2018-03-06T02:20:38.505Z,69.40
2018-03-06T02:21:38.388Z,69.40
2018-03-06T02:22:38.289Z,74.10
2018-03-06T02:23:38.183Z,73.20
2018-03-06T02:24:38.067Z,73.50
2018-03-06T02:25:37.962Z,70.70
2018-03-06T02:26:37.861Z,69.10
2018-03-06T02:27:37.746Z,70.90
2018-03-06T02:28:37.640Z,65.10
2018-03-06T02:29:37.786Z,71.90
2018-03-06T02:30:37.422Z,74.50
2018-03-06T02:31:37.318Z,71.00
2018-03-06T02:32:37.215Z,69.20
2018-03-06T02:33:37.099Z,76.80
2018-03-06T02:34:36.995Z,71.40
2018-03-06T02:35:36.892Z,71.40
2018-03-06T02:36:36.777Z,73.20
2018-03-06T02:37:36.673Z,79.20
2018-03-06T02:38:36.559Z,73.10
2018-03-06T02:39:36.454Z,77.90
2018-03-06T02:40:36.351Z,75.50
2018-03-06T02:41:36.235Z,74.30
2018-03-06T02:42:36.131Z,69.30
2018-03-06T02:43:36.030Z,74.90
2018-03-06T02:44:35.912Z,71.00
2018-03-06T02:45:35.810Z,73.90
2018-03-06T02:46:35.705Z,70.70
2018-03-06T02:47:35.590Z,71.30
2018-03-06T02:48:35.488Z,74.90
2018-03-06T02:49:35.385Z,74.30
2018-03-06T02:50:35.267Z,70.30
2018-03-06T02:51:35.164Z,71.70
2018-03-06T02:52:35.050Z,73.40
2018-03-06T02:53:34.947Z,81.20
2018-03-06T02:54:34.845Z,75.60
2018-03-06T02:55:34.728Z,81.00
2018-03-06T02:56:34.625Z,72.30
2018-03-06T02:57:34.520Z,74.80
2018-03-06T02:58:34.404Z,74.30
2018-03-06T02:59:34.306Z,75.50
2018-03-06T03:00:34.198Z,75.80
2018-03-06T03:01:34.080Z,71.90
2018-03-06T03:02:33.978Z,72.70
2018-03-06T03:03:33.874Z,74.90
2018-03-06T03:04:33.759Z,69.70
2018-03-06T03:05:33.656Z,75.30
2018-03-06T03:06:33.552Z,77.20
2018-03-06T03:07:33.435Z,75.10
2018-03-06T03:08:33.334Z,71.80
2018-03-06T03:09:33.219Z,73.20
2018-03-06T03:10:33.115Z,73.60
2018-03-06T03:11:33.011Z,77.20
2018-03-06T03:12:32.894Z,71.20
2018-03-06T03:13:32.791Z,76.80
2018-03-06T03:14:32.688Z,75.20
2018-03-06T03:15:32.574Z,73.20
2018-03-06T03:16:32.469Z,69.00
2018-03-06T03:17:32.365Z,76.70
2018-03-06T03:18:32.250Z,74.80
2018-03-06T03:19:32.147Z,76.90
2018-03-06T03:20:32.044Z,70.60
2018-03-06T03:21:31.928Z,74.10
2018-03-06T03:22:31.825Z,75.30
2018-03-06T03:23:31.710Z,76.10
2018-03-06T03:24:31.908Z,72.40
2018-03-06T03:25:31.501Z,72.70
2018-03-06T03:26:31.386Z,78.30
2018-03-06T03:27:31.283Z,74.60
2018-03-06T03:28:31.181Z,78.50
2018-03-06T03:29:31.063Z,74.70
2018-03-06T03:30:30.960Z,76.50
2018-03-06T03:31:30.870Z,73.80
2018-03-06T03:32:30.741Z,73.90
2018-03-06T03:33:30.639Z,76.00
2018-03-06T03:34:30.524Z,73.70
2018-03-06T03:35:30.419Z,75.80
2018-03-06T03:36:30.315Z,79.00
2018-03-06T03:37:30.199Z,70.00
2018-03-06T03:38:30.096Z,66.90
2018-03-06T03:39:29.998Z,73.20
2018-03-06T03:40:29.876Z,81.50
2018-03-06T03:41:29.775Z,75.50
2018-03-06T03:42:29.671Z,75.40
2018-03-06T03:43:29.556Z,78.90
2018-03-06T03:44:29.451Z,74.40
2018-03-06T03:45:29.336Z,81.00
2018-03-06T03:46:29.231Z,72.00
2018-03-06T03:47:29.129Z,76.30
2018-03-06T03:48:29.014Z,74.90
2018-03-06T03:49:28.909Z,73.40
2018-03-06T03:50:28.806Z,78.50
2018-03-06T03:51:28.690Z,78.50
2018-03-06T03:52:28.587Z,82.00
2018-03-06T03:53:28.473Z,79.90
2018-03-06T03:54:28.370Z,77.80
2018-03-06T03:55:28.264Z,76.80
2018-03-06T03:56:28.151Z,75.50
2018-03-06T03:57:28.058Z,80.20
2018-03-06T03:58:27.942Z,75.60
2018-03-06T03:59:27.832Z,81.90
2018-03-06T04:00:27.723Z,83.70
2018-03-06T04:01:27.618Z,84.10
2018-03-06T04:02:27.504Z,77.80
2018-03-06T04:03:27.402Z,82.60
2018-03-06T04:04:27.288Z,80.10
2018-03-06T04:05:27.188Z,80.20
2018-03-06T04:06:27.078Z,85.40
2018-03-06T04:07:26.962Z,79.80
2018-03-06T04:08:26.862Z,76.40
2018-03-06T04:09:26.756Z,81.20
2018-03-06T04:10:26.640Z,77.20
2018-03-06T04:11:26.547Z,81.20
2018-03-06T04:12:26.421Z,86.90
2018-03-06T04:13:26.317Z,77.00
2018-03-06T04:14:26.213Z,80.30
2018-03-06T04:15:26.098Z,82.90
2018-03-06T04:16:25.997Z,82.00
2018-03-06T04:17:25.892Z,76.70
2018-03-06T04:18:25.777Z,72.80
2018-03-06T04:19:25.672Z,76.00
2018-03-06T04:20:25.557Z,75.50
2018-03-06T04:21:25.455Z,82.10
2018-03-06T04:22:25.350Z,81.20
2018-03-06T04:23:25.233Z,77.70
2018-03-06T04:24:25.130Z,80.20
2018-03-06T04:25:25.027Z,74.60
2018-03-06T04:26:24.912Z,77.70
2018-03-06T04:27:24.809Z,74.40
2018-03-06T04:28:24.693Z,77.00
2018-03-06T04:29:24.905Z,79.40
2018-03-06T04:30:24.488Z,81.30
2018-03-06T04:31:24.369Z,75.50
2018-03-06T04:32:24.268Z,76.80
2018-03-06T04:33:24.163Z,80.30
2018-03-06T04:34:24.048Z,78.10
2018-03-06T04:35:23.945Z,80.70
2018-03-06T04:36:23.828Z,79.00
2018-03-06T04:37:23.726Z,80.10
2018-03-06T04:38:23.622Z,77.20
2018-03-06T04:39:23.506Z,80.10
2018-03-06T04:40:23.403Z,78.30
2018-03-06T04:41:23.299Z,82.50
2018-03-06T04:42:23.184Z,83.70
2018-03-06T04:43:23.081Z,77.60
2018-03-06T04:44:22.978Z,83.60
2018-03-06T04:45:22.861Z,76.00
2018-03-06T04:46:22.758Z,83.60
2018-03-06T04:47:22.642Z,78.40
2018-03-06T04:48:22.539Z,79.40
2018-03-06T04:49:22.437Z,82.10
2018-03-06T04:50:22.319Z,79.60
2018-03-06T04:51:22.215Z,76.00
2018-03-06T04:52:22.100Z,78.20
2018-03-06T04:53:22.044Z,79.90
2018-03-06T04:54:21.894Z,83.90
2018-03-06T04:55:21.784Z,83.90
2018-03-06T04:56:21.678Z,81.80
2018-03-06T04:57:21.571Z,77.40
2018-03-06T04:58:21.456Z,79.30
2018-03-06T04:59:21.353Z,80.30
2018-03-06T05:00:21.236Z,79.30
2018-03-06T05:01:21.134Z,79.40
2018-03-06T05:02:21.051Z,73.40
2018-03-06T05:03:20.914Z,74.40
2018-03-06T05:04:20.810Z,81.90
2018-03-06T05:05:20.697Z,88.50
2018-03-06T05:06:20.591Z,83.60
2018-03-06T05:07:20.488Z,81.50
2018-03-06T05:08:20.376Z,83.00
2018-03-06T05:09:20.269Z,83.10
2018-03-06T05:10:20.168Z,79.70
2018-03-06T05:11:20.051Z,78.80
2018-03-06T05:12:19.947Z,77.70
2018-03-06T05:13:19.843Z,81.60
2018-03-06T05:14:19.729Z,82.60
2018-03-06T05:15:19.627Z,82.90
2018-03-06T05:16:19.508Z,85.60
2018-03-06T05:17:19.405Z,81.90
2018-03-06T05:18:19.301Z,84.80
2018-03-06T05:19:19.188Z,80.00
2018-03-06T05:20:19.083Z,80.80
2018-03-06T05:21:18.967Z,78.10
2018-03-06T05:22:18.864Z,78.10
2018-03-06T05:23:18.759Z,77.50
2018-03-06T05:24:18.647Z,78.70
2018-03-06T05:25:18.542Z,78.40
2018-03-06T05:26:18.439Z,81.90
2018-03-06T05:27:18.321Z,79.20
2018-03-06T05:28:18.218Z,79.80
2018-03-06T05:29:18.107Z,75.50
2018-03-06T05:30:18.000Z,81.40
2018-03-06T05:31:17.896Z,77.80
2018-03-06T05:32:17.781Z,78.40
2018-03-06T05:33:17.676Z,81.40
2018-03-06T05:34:17.573Z,80.80
2018-03-06T05:35:17.457Z,80.60
2018-03-06T05:36:17.355Z,80.40
2018-03-06T05:37:17.239Z,80.20
2018-03-06T05:38:17.136Z,85.40
2018-03-06T05:39:17.032Z,83.00
2018-03-06T05:40:16.917Z,82.80
2018-03-06T05:41:16.819Z,81.90
2018-03-06T05:42:16.698Z,75.40
2018-03-06T05:43:16.594Z,80.50
2018-03-06T05:44:16.790Z,78.20
2018-03-06T05:45:16.375Z,80.10
2018-03-06T05:46:16.270Z,85.10
2018-03-06T05:47:16.168Z,80.70
2018-03-06T05:48:16.064Z,81.90
2018-03-06T05:49:15.948Z,81.00
2018-03-06T05:50:15.834Z,81.20
2018-03-06T05:51:15.730Z,77.70
2018-03-06T05:52:15.627Z,83.00
2018-03-06T05:53:15.511Z,87.60
2018-03-06T05:54:15.407Z,84.60
2018-03-06T05:55:15.303Z,76.90
2018-03-06T05:56:15.188Z,86.80
2018-03-06T05:57:15.085Z,85.70
2018-03-06T05:58:14.968Z,82.10
2018-03-06T05:59:14.865Z,84.30
2018-03-06T06:00:14.775Z,80.10
2018-03-06T06:01:14.648Z,87.40
2018-03-06T06:02:14.544Z,81.30
2018-03-06T06:03:14.440Z,84.80
2018-03-06T06:04:14.324Z,87.00
2018-03-06T06:05:14.221Z,83.00
2018-03-06T06:06:14.105Z,81.80
2018-03-06T06:07:14.000Z,81.20
2018-03-06T06:08:13.899Z,80.00
2018-03-06T06:09:13.781Z,83.20
2018-03-06T06:10:13.682Z,84.50
2018-03-06T06:11:13.575Z,74.90
2018-03-06T06:12:13.461Z,77.70
2018-03-06T06:13:13.357Z,87.20
2018-03-06T06:14:13.254Z,77.50
2018-03-06T06:15:13.137Z,79.90
2018-03-06T06:16:13.033Z,78.10
2018-03-06T06:17:12.918Z,82.20
2018-03-06T06:18:12.814Z,80.50
2018-03-06T06:19:12.750Z,83.10
2018-03-06T06:20:12.597Z,86.10
2018-03-06T06:21:12.493Z,82.80
2018-03-06T06:22:12.389Z,86.00
2018-03-06T06:23:12.274Z,81.20
2018-03-06T06:24:12.170Z,79.50
2018-03-06T06:25:12.056Z,79.10
2018-03-06T06:26:11.952Z,77.10
2018-03-06T06:27:11.848Z,82.40
2018-03-06T06:28:11.732Z,80.40
2018-03-06T06:29:11.629Z,82.30
2018-03-06T06:30:11.528Z,72.40
2018-03-06T06:31:11.410Z,78.40
2018-03-06T06:32:11.306Z,79.70
2018-03-06T06:33:11.205Z,76.60
2018-03-06T06:34:11.088Z,78.30
2018-03-06T06:35:10.984Z,79.30
2018-03-06T06:36:10.880Z,78.60
2018-03-06T06:37:10.765Z,78.20
2018-03-06T06:38:10.661Z,69.10
2018-03-06T06:39:10.811Z,78.20
2018-03-06T06:40:10.442Z,79.80
2018-03-06T06:41:10.339Z,79.50
2018-03-06T06:42:10.235Z,78.70
2018-03-06T06:43:10.119Z,73.20
2018-03-06T06:44:10.017Z,75.50
2018-03-06T06:45:09.913Z,75.90
2018-03-06T06:46:09.797Z,79.00
2018-03-06T06:47:09.694Z,74.50
2018-03-06T06:48:09.592Z,81.40
2018-03-06T06:49:09.474Z,76.30
2018-03-06T06:50:09.373Z,72.10
2018-03-06T06:51:09.269Z,79.10
2018-03-06T06:52:09.152Z,75.80
2018-03-06T06:53:09.049Z,75.90
2018-03-06T06:54:08.945Z,78.10
2018-03-06T06:55:08.842Z,76.60
2018-03-06T06:56:08.725Z,77.90
2018-03-06T06:57:08.623Z,75.70
2018-03-06T06:58:08.519Z,75.50
2018-03-06T06:59:08.405Z,76.90
2018-03-06T07:00:08.306Z,73.00
2018-03-06T07:01:08.202Z,73.00
2018-03-06T07:02:08.081Z,76.30
2018-03-06T07:03:07.978Z,77.10
2018-03-06T07:04:08.125Z,74.60
2018-03-06T07:05:07.760Z,83.70
2018-03-06T07:06:07.656Z,74.90
2018-03-06T07:07:07.553Z,77.30
2018-03-06T07:08:07.437Z,75.10
2018-03-06T07:09:07.335Z,78.50
2018-03-06T07:10:07.229Z,76.00
2018-03-06T07:11:07.127Z,73.60
2018-03-06T07:12:07.010Z,80.40
2018-03-06T07:13:06.907Z,74.70
2018-03-06T07:14:06.805Z,77.40
2018-03-06T07:15:06.701Z,75.60
2018-03-06T07:16:06.588Z,76.90
2018-03-06T07:17:06.482Z,75.90
2018-03-06T07:18:06.377Z,79.30
2018-03-06T07:19:06.264Z,73.80
2018-03-06T07:20:06.160Z,73.90
2018-03-06T07:21:06.056Z,74.90
2018-03-06T07:22:05.952Z,71.80
2018-03-06T07:23:05.837Z,72.30
2018-03-06T07:24:05.984Z,74.00
2018-03-06T07:25:05.630Z,73.60
2018-03-06T07:26:05.538Z,75.30
2018-03-06T07:27:05.411Z,71.20
2018-03-06T07:28:05.308Z,70.30
2018-03-06T07:29:05.206Z,73.00
2018-03-06T07:30:05.092Z,75.10
2018-03-06T07:31:04.997Z,72.00
2018-03-06T07:32:04.882Z,71.10
2018-03-06T07:33:04.779Z,75.50
2018-03-06T07:34:04.674Z,73.80
2018-03-06T07:35:04.560Z,76.60
2018-03-06T07:36:04.456Z,78.20
2018-03-06T07:37:04.363Z,73.80
2018-03-06T07:38:04.279Z,73.40
2018-03-06T07:39:04.135Z,74.60
2018-03-06T07:40:04.028Z,74.50
2018-03-06T07:41:03.927Z,73.30
2018-03-06T07:42:03.827Z,70.00
2018-03-06T07:43:03.720Z,74.20
2018-03-06T07:44:03.606Z,77.10
2018-03-06T07:45:03.507Z,70.20
2018-03-06T07:46:03.398Z,72.20
2018-03-06T07:47:03.295Z,75.50
2018-03-06T07:48:03.181Z,74.20
2018-03-06T07:49:03.075Z,68.00
2018-03-06T07:50:02.974Z,69.30
2018-03-06T07:51:02.868Z,68.40
2018-03-06T07:52:02.766Z,73.60
2018-03-06T07:53:02.651Z,74.60
2018-03-06T07:54:02.548Z,75.80
2018-03-06T07:55:02.447Z,71.10
2018-03-06T07:56:02.340Z,69.00
2018-03-06T07:57:02.236Z,67.50
2018-03-06T07:58:02.133Z,67.30
2018-03-06T07:59:02.017Z,71.40
2018-03-06T08:00:01.916Z,73.10
2018-03-06T08:01:01.814Z,71.50
2018-03-06T08:02:01.712Z,67.70
2018-03-06T08:03:01.605Z,68.70
2018-03-06T08:04:01.491Z,76.10
2018-03-06T08:05:01.385Z,73.10
2018-03-06T08:06:01.282Z,75.70
2018-03-06T08:07:01.178Z,68.10
2018-03-06T08:08:01.076Z,71.90
2018-03-06T08:09:00.959Z,69.20
2018-03-06T08:10:00.855Z,69.10
2018-03-06T08:11:00.753Z,68.10
2018-03-06T08:12:00.677Z,69.20
2018-03-06T08:13:00.546Z,68.90
2018-03-06T08:14:00.442Z,67.70
2018-03-06T08:15:00.326Z,69.90
2018-03-06T08:16:00.224Z,70.70
2018-03-06T08:17:00.121Z,68.60
2018-03-06T08:18:00.017Z,70.10
2018-03-06T08:18:59.914Z,67.90
2018-03-06T08:19:59.796Z,67.40
2018-03-06T08:20:59.694Z,67.20
2018-03-06T08:21:59.591Z,67.80
2018-03-06T08:22:59.490Z,73.20
2018-03-06T08:23:59.383Z,69.50
2018-03-06T08:24:59.276Z,72.60
2018-03-06T08:25:59.169Z,67.60
2018-03-06T08:26:59.062Z,73.00
2018-03-06T08:27:58.959Z,76.10
2018-03-06T08:28:58.855Z,67.90
2018-03-06T08:29:58.752Z,71.80
2018-03-06T08:30:58.638Z,70.90
2018-03-06T08:31:58.534Z,66.80
2018-03-06T08:32:58.432Z,70.70
2018-03-06T08:33:58.325Z,66.20
2018-03-06T08:34:58.222Z,66.80
2018-03-06T08:35:58.120Z,68.00
2018-03-06T08:36:58.015Z,65.40
2018-03-06T08:37:57.902Z,68.20
2018-03-06T08:38:57.798Z,66.70
2018-03-06T08:39:57.695Z,68.60
2018-03-06T08:40:57.591Z,64.60
2018-03-06T08:41:57.488Z,66.30
2018-03-06T08:42:57.384Z,62.40
2018-03-06T08:43:57.281Z,66.50
2018-03-06T08:44:57.177Z,63.70
2018-03-06T08:45:57.074Z,58.50
2018-03-06T08:46:56.959Z,61.30
2018-03-06T08:47:56.854Z,64.70
2018-03-06T08:48:56.754Z,64.70
2018-03-06T08:49:56.647Z,67.10
2018-03-06T08:50:56.545Z,58.70
2018-03-06T08:51:56.441Z,61.30
2018-03-06T08:52:56.362Z,60.90
2018-03-06T08:53:56.234Z,59.40
2018-03-06T08:54:56.131Z,55.90
2018-03-06T08:55:56.028Z,62.20
2018-03-06T08:56:55.924Z,62.40
2018-03-06T08:57:55.822Z,62.00
2018-03-06T08:58:55.967Z,59.80
2018-03-06T08:59:55.603Z,59.00
2018-03-06T09:00:55.499Z,58.90
2018-03-06T09:01:55.396Z,64.30
2018-03-06T09:02:55.292Z,64.40
2018-03-06T09:03:55.190Z,59.40
2018-03-06T09:04:55.086Z,63.80
2018-03-06T09:05:54.984Z,63.90
2018-03-06T09:06:54.878Z,59.50
2018-03-06T09:07:54.780Z,63.50
2018-03-06T09:08:54.675Z,60.00
2018-03-06T09:09:54.568Z,59.10
2018-03-06T09:10:54.466Z,56.20
2018-03-06T09:11:54.362Z,56.90
2018-03-06T09:12:54.260Z,58.20
2018-03-06T09:13:54.156Z,59.20
2018-03-06T09:14:54.053Z,59.40
2018-03-06T09:15:53.951Z,60.40
2018-03-06T09:16:53.846Z,61.90
2018-03-06T09:17:53.744Z,60.90
2018-03-06T09:18:53.891Z,58.10
2018-03-06T09:19:53.547Z,58.90
2018-03-06T09:20:53.433Z,55.80
2018-03-06T09:21:53.330Z,57.20
2018-03-06T09:22:53.227Z,59.70
2018-03-06T09:23:53.123Z,53.50
2018-03-06T09:24:53.021Z,56.20
2018-03-06T09:25:52.916Z,56.00
2018-03-06T09:26:52.826Z,61.20
2018-03-06T09:27:52.722Z,56.10
2018-03-06T09:28:52.619Z,57.30
2018-03-06T09:29:52.516Z,57.90
2018-03-06T09:30:52.412Z,53.90
2018-03-06T09:31:52.309Z,55.50
2018-03-06T09:32:52.207Z,55.30
2018-03-06T09:33:52.101Z,54.50
2018-03-06T09:34:51.998Z,57.80
2018-03-06T09:35:51.896Z,59.10
2018-03-06T09:36:51.806Z,51.50
2018-03-06T09:37:51.690Z,50.10
2018-03-06T09:38:51.585Z,54.50
2018-03-06T09:39:51.483Z,53.00
2018-03-06T09:40:51.380Z,53.40
2018-03-06T09:41:51.288Z,54.80
2018-03-06T09:42:51.185Z,54.50
2018-03-06T09:43:51.082Z,55.40
2018-03-06T09:44:50.978Z,56.30
2018-03-06T09:45:50.874Z,52.90
2018-03-06T09:46:50.771Z,53.80
2018-03-06T09:47:50.669Z,51.60
2018-03-06T09:48:50.564Z,52.00
2018-03-06T09:49:50.462Z,54.90
2018-03-06T09:50:50.384Z,51.50
2018-03-06T09:51:50.266Z,48.90
2018-03-06T09:52:50.163Z,51.00
2018-03-06T09:53:50.061Z,47.60
2018-03-06T09:54:49.958Z,54.10
2018-03-06T09:55:49.853Z,51.50
2018-03-06T09:56:49.750Z,55.30
2018-03-06T09:57:49.646Z,50.80
2018-03-06T09:58:49.846Z,49.50
2018-03-06T09:59:49.441Z,51.30
2018-03-06T10:00:49.351Z,50.60
2018-03-06T10:01:49.247Z,53.40
2018-03-06T10:02:49.144Z,52.00
2018-03-06T10:03:49.040Z,52.80
2018-03-06T10:04:48.936Z,49.40
2018-03-06T10:05:48.835Z,51.60
2018-03-06T10:06:48.729Z,51.50
2018-03-06T10:07:48.627Z,48.90
2018-03-06T10:08:48.535Z,51.10
2018-03-06T10:09:48.431Z,50.50
2018-03-06T10:10:48.329Z,53.60
2018-03-06T10:11:48.224Z,49.90
2018-03-06T10:12:48.122Z,52.30
2018-03-06T10:13:48.018Z,48.80
2018-03-06T10:14:47.915Z,49.60
2018-03-06T10:15:47.826Z,45.80
2018-03-06T10:16:47.720Z,50.40
2018-03-06T10:17:47.618Z,49.30
2018-03-06T10:18:47.515Z,51.10
2018-03-06T10:19:47.461Z,53.00
2018-03-06T10:20:47.308Z,50.40
2018-03-06T10:21:47.216Z,49.20
2018-03-06T10:22:47.114Z,50.80
2018-03-06T10:23:47.018Z,50.70
2018-03-06T10:24:46.908Z,53.20
2018-03-06T10:25:46.804Z,52.90
2018-03-06T10:26:46.714Z,49.50
2018-03-06T10:27:46.600Z,51.60
2018-03-06T10:28:46.507Z,47.20
2018-03-06T10:29:46.403Z,49.30
2018-03-06T10:30:46.301Z,52.50
2018-03-06T10:31:46.198Z,47.50
2018-03-06T10:32:46.105Z,45.40
2018-03-06T10:33:46.003Z,45.90
2018-03-06T10:34:45.901Z,45.00
2018-03-06T10:35:45.808Z,41.80
2018-03-06T10:36:45.693Z,47.90
2018-03-06T10:37:45.602Z,46.10
2018-03-06T10:38:45.499Z,50.80
2018-03-06T10:39:45.397Z,48.20
2018-03-06T10:40:45.292Z,47.90
2018-03-06T10:41:45.189Z,46.10
2018-03-06T10:42:45.098Z,47.50
2018-03-06T10:43:44.996Z,47.90
2018-03-06T10:44:44.904Z,45.00
2018-03-06T10:45:44.788Z,45.30
2018-03-06T10:46:44.697Z,44.40
2018-03-06T10:47:44.594Z,48.10
2018-03-06T10:48:44.490Z,47.80
2018-03-06T10:49:44.387Z,46.50
2018-03-06T10:50:44.297Z,44.30
2018-03-06T10:51:44.228Z,46.90
2018-03-06T10:52:44.090Z,48.30
2018-03-06T10:53:43.999Z,43.00
2018-03-06T10:54:43.887Z,37.20
2018-03-06T10:55:43.792Z,40.80
2018-03-06T10:56:43.689Z,42.30
2018-03-06T10:57:43.597Z,42.20
2018-03-06T10:58:43.494Z,39.10
2018-03-06T10:59:43.392Z,39.60
2018-03-06T11:00:43.288Z,38.10
2018-03-06T11:01:43.186Z,37.60
2018-03-06T11:02:43.095Z,42.30
2018-03-06T11:03:42.991Z,40.50
2018-03-06T11:04:42.887Z,42.80
2018-03-06T11:05:42.785Z,41.60
2018-03-06T11:06:42.693Z,45.10
2018-03-06T11:07:42.591Z,46.10
2018-03-06T11:08:42.501Z,44.00
2018-03-06T11:09:42.384Z,46.60
2018-03-06T11:10:42.292Z,43.20
2018-03-06T11:11:42.189Z,51.10
2018-03-06T11:12:42.087Z,45.30
2018-03-06T11:13:41.994Z,46.90
2018-03-06T11:14:41.892Z,44.50
2018-03-06T11:15:41.789Z,48.70
2018-03-06T11:16:41.686Z,51.40
2018-03-06T11:17:41.596Z,51.40
2018-03-06T11:18:41.492Z,47.10
2018-03-06T11:19:41.388Z,54.00
2018-03-06T11:20:41.285Z,52.60
2018-03-06T11:21:41.194Z,58.00
2018-03-06T11:22:41.090Z,53.00
2018-03-06T11:23:40.986Z,52.80
2018-03-06T11:24:40.916Z,50.70
2018-03-06T11:25:40.798Z,54.50
2018-03-06T11:26:40.691Z,57.00
2018-03-06T11:27:40.587Z,52.90
2018-03-06T11:28:40.496Z,58.40
2018-03-06T11:29:40.391Z,53.90
2018-03-06T11:30:40.290Z,49.90
2018-03-06T11:31:40.203Z,51.20
2018-03-06T11:32:40.095Z,48.40
2018-03-06T11:33:39.992Z,41.80
2018-03-06T11:34:39.884Z,47.40
2018-03-06T11:35:39.792Z,46.10
2018-03-06T11:36:39.698Z,47.20
2018-03-06T11:37:39.590Z,48.80
2018-03-06T11:38:39.750Z,51.50
2018-03-06T11:39:39.398Z,51.30
2018-03-06T11:40:39.291Z,50.60
2018-03-06T11:41:39.203Z,48.10
2018-03-06T11:42:39.100Z,51.80
2018-03-06T11:43:38.992Z,54.00
2018-03-06T11:44:38.893Z,54.10
2018-03-06T11:45:38.796Z,51.60
2018-03-06T11:46:38.707Z,49.70
2018-03-06T11:47:38.597Z,53.40
2018-03-06T11:48:38.490Z,46.60
2018-03-06T11:49:38.404Z,50.10
2018-03-06T11:50:38.294Z,50.90
2018-03-06T11:51:38.191Z,54.10
2018-03-06T11:52:38.108Z,55.00
2018-03-06T11:53:37.994Z,50.50
2018-03-06T11:54:37.897Z,52.30
2018-03-06T11:55:37.794Z,53.30
2018-03-06T11:56:37.713Z,55.30
2018-03-06T11:57:37.598Z,53.50
2018-03-06T11:58:37.490Z,57.40
2018-03-06T11:59:37.403Z,55.00
2018-03-06T12:00:37.301Z,50.50
2018-03-06T12:01:37.196Z,50.70
2018-03-06T12:02:37.112Z,54.40
2018-03-06T12:03:37.005Z,53.80
2018-03-06T12:04:36.899Z,54.30
2018-03-06T12:05:36.804Z,54.00
2018-03-06T12:06:36.709Z,52.00
2018-03-06T12:07:36.599Z,50.70
2018-03-06T12:08:36.503Z,50.60
2018-03-06T12:09:36.421Z,53.40
2018-03-06T12:10:36.349Z,52.80
2018-03-06T12:11:36.205Z,53.80
2018-03-06T12:12:36.113Z,49.30
2018-03-06T12:13:36.007Z,49.70
2018-03-06T12:14:35.906Z,54.60
2018-03-06T12:15:35.803Z,50.40
2018-03-06T12:16:35.718Z,53.40
2018-03-06T12:17:35.606Z,55.20
2018-03-06T12:18:35.752Z,52.40
2018-03-06T12:19:35.415Z,57.40
2018-03-06T12:20:35.310Z,53.70
2018-03-06T12:21:35.205Z,54.60
2018-03-06T12:22:35.130Z,56.70
2018-03-06T12:23:35.014Z,59.60
2018-03-06T12:24:34.906Z,57.30
2018-03-06T12:25:34.812Z,54.00
2018-03-06T12:26:34.712Z,57.90
2018-03-06T12:27:34.607Z,55.00
2018-03-06T12:28:34.507Z,57.20
2018-03-06T12:29:34.412Z,55.80
2018-03-06T12:30:34.315Z,58.40
2018-03-06T12:31:34.209Z,52.80
2018-03-06T12:32:34.107Z,49.10
2018-03-06T12:33:34.018Z,50.30
2018-03-06T12:34:33.914Z,52.20
2018-03-06T12:35:33.808Z,54.70
2018-03-06T12:36:33.724Z,52.60
2018-03-06T12:37:33.611Z,57.50
2018-03-06T12:38:33.513Z,56.60
2018-03-06T12:39:33.410Z,59.00
2018-03-06T12:40:33.314Z,56.30
2018-03-06T12:41:33.223Z,57.90
2018-03-06T12:42:33.122Z,56.90
2018-03-06T12:43:33.018Z,57.30
2018-03-06T12:44:32.921Z,54.20
2018-03-06T12:45:32.813Z,56.20
2018-03-06T12:46:32.725Z,57.00
2018-03-06T12:47:32.630Z,55.80
2018-03-06T12:48:32.515Z,55.80
2018-03-06T12:49:32.428Z,56.30
2018-03-06T12:50:32.318Z,55.40
2018-03-06T12:51:32.215Z,50.40